Time;durP1;ratioP1;P1;durP2;ratioP2;P2;SDS_P1;SDS_P2;PMS_P1;PMS_P2;Temp;Humidity;BMP_temperature;BMP_pressure;BME280_temperature;BME280_humidity;BME280_pressure;Samples;Min_cycle;Max_cycle;Signal;HPM_P1;HPM_P2
2022/01/22 00:00:20;;;;;;;26.42;7.10;;;;;;;-1.20;76.46;99263.81;6225780;23;20027;-78
2022/01/22 00:03:08;;;;;;;24.25;6.28;;;;;;;-1.24;77.01;99260.31;6225835;23;20399;-78
2022/01/22 00:05:37;;;;;;;12.07;4.68;;;;;;;-1.24;77.11;99270.03;6225931;23;20103;-77
2022/01/22 00:08:05;;;;;;;28.33;10.20;;;;;;;-1.15;76.94;99267.25;6225717;23;20021;-77
2022/01/22 00:10:34;;;;;;;104.68;38.35;;;;;;;-1.17;76.54;99272.56;6225786;23;20111;-78
2022/01/22 00:14:23;;;;;;;70.70;24.85;;;;;;;-1.04;77.09;99259.09;6225735;23;20235;-78
2022/01/22 00:15:54;;;;;;;28.73;7.75;;;;;;;-1.35;77.01;99275.53;6215729;23;20020;-77
2022/01/22 00:18:22;;;;;;;27.83;8.35;;;;;;;-1.16;77.19;99268.16;6225373;23;20325;-77
2022/01/22 00:20:51;;;;;;;22.35;7.18;;;;;;;-1.14;77.56;99266.34;6225860;23;20016;-78
2022/01/22 00:23:20;;;;;;;52.10;12.85;;;;;;;-1.24;77.53;99262.09;6225554;23;20028;-78
2022/01/22 00:25:48;;;;;;;34.13;10.65;;;;;;;-1.18;77.59;99254.91;6225513;23;20067;-78
2022/01/22 00:28:15;;;;;;;32.00;9.30;;;;;;;-1.15;76.92;99250.47;6215651;23;20017;-77
2022/01/22 00:30:43;;;;;;;21.98;6.38;;;;;;;-1.19;76.23;99252.31;6225596;23;20021;-78
2022/01/22 00:33:10;;;;;;;24.42;6.38;;;;;;;-1.20;76.56;99243.47;6225261;23;20039;-77
2022/01/22 00:35:38;;;;;;;19.48;5.93;;;;;;;-1.27;77.25;99254.19;6225657;23;20023;-78
2022/01/22 00:38:07;;;;;;;20.45;6.57;;;;;;;-1.22;77.18;99252.38;6226001;23;20082;-77
2022/01/22 00:40:35;;;;;;;28.15;7.10;;;;;;;-1.41;76.84;99257.09;6225638;23;20012;-76
2022/01/22 00:43:02;;;;;;;33.55;10.80;;;;;;;-1.32;76.62;99254.28;6225925;23;20020;-78
2022/01/22 00:45:30;;;;;;;31.25;8.48;;;;;;;-1.38;77.14;99259.69;6225597;23;20020;-77
2022/01/22 00:47:58;;;;;;;28.98;8.43;;;;;;;-1.26;76.68;99263.88;6225053;23;20016;-77
2022/01/22 00:50:26;;;;;;;21.60;6.93;;;;;;;-1.43;76.91;99267.72;6225054;23;20013;-78
2022/01/22 00:52:54;;;;;;;18.63;5.55;;;;;;;-1.24;77.00;99262.97;6225841;23;20383;-76
2022/01/22 00:55:23;;;;;;;14.63;4.60;;;;;;;-1.27;76.62;99265.69;6225529;23;20067;-78
2022/01/22 00:57:50;;;;;;;17.73;4.55;;;;;;;-1.35;76.73;99264.94;6225472;23;20020;-77
2022/01/22 01:00:19;;;;;;;13.35;4.43;;;;;;;-1.32;76.66;99262.25;6225392;23;20020;-77
2022/01/22 01:02:47;;;;;;;17.73;5.68;;;;;;;-1.42;77.22;99253.56;6225065;23;20092;-77
2022/01/22 01:05:15;;;;;;;17.58;5.13;;;;;;;-1.34;76.99;99264.03;6224403;23;20017;-77
2022/01/22 01:07:43;;;;;;;18.85;6.07;;;;;;;-1.35;77.19;99254.34;6225511;23;20020;-78
2022/01/22 01:10:14;;;;;;;17.05;5.82;;;;;;;-1.49;76.98;99259.88;6225472;23;20021;-78
2022/01/22 01:12:43;;;;;;;18.15;5.88;;;;;;;-1.51;77.09;99254.59;6225482;23;20019;-76
2022/01/22 01:15:22;;;;;;;21.45;5.97;;;;;;;-1.50;77.08;99253.69;6225483;23;20020;-76
2022/01/22 01:34:27;;;;;;;16.42;5.75;;;;;;;-1.65;77.72;99264.53;6133482;23;20030;-77
2022/01/22 01:36:55;;;;;;;16.13;5.35;;;;;;;-1.56;77.57;99253.78;6133358;23;20085;-77
2022/01/22 01:39:26;;;;;;;19.50;5.22;;;;;;;-1.65;77.78;99256.59;6133574;23;20033;-76
2022/01/22 01:41:58;;;;;;;13.98;5.28;;;;;;;-1.59;77.93;99261.78;6135189;23;20029;-77
2022/01/22 01:44:28;;;;;;;20.42;5.10;;;;;;;-1.61;78.01;99263.59;6135223;23;20042;-76
2022/01/22 01:46:58;;;;;;;14.45;4.95;;;;;;;-1.60;78.13;99260.03;6134761;23;20028;-77
2022/01/22 01:49:26;;;;;;;15.23;5.30;;;;;;;-1.63;78.06;99250.38;6135145;23;20441;-77
2022/01/22 01:51:56;;;;;;;13.30;4.88;;;;;;;-1.74;78.25;99249.66;6135074;23;20021;-77
2022/01/22 01:54:30;;;;;;;16.90;5.30;;;;;;;-1.71;78.44;99264.63;6134985;23;20029;-76
2022/01/22 01:59:47;;;;;;;13.10;4.68;;;;;;;-1.67;78.47;99248.66;6226662;23;20452;-77
2022/01/22 02:02:15;;;;;;;13.95;5.28;;;;;;;-1.76;78.99;99238.22;6227046;23;20021;-77
2022/01/22 02:04:43;;;;;;;12.60;4.95;;;;;;;-1.63;78.37;99247.75;6227088;23;20020;-77
2022/01/22 02:07:10;;;;;;;15.23;5.03;;;;;;;-1.61;78.26;99242.41;6227053;23;20024;-77
2022/01/22 02:09:40;;;;;;;16.20;4.82;;;;;;;-1.60;78.42;99249.44;6227020;23;20063;-77
2022/01/22 02:12:13;;;;;;;13.57;4.75;;;;;;;-1.69;78.26;99249.59;6226837;23;20096;-76
2022/01/22 02:25:43;;;;;;;15.10;5.63;;;;;;;-1.68;78.92;99254.00;6226773;23;20017;-77
2022/01/22 02:28:12;;;;;;;17.20;6.50;;;;;;;-1.66;79.57;99252.19;6216241;23;20023;-77
2022/01/22 02:30:44;;;;;;;14.98;4.88;;;;;;;-1.64;80.64;99245.97;6226570;23;20021;-77
2022/01/22 02:33:24;;;;;;;16.63;5.10;;;;;;;-1.72;81.79;99247.00;6226651;23;20078;-77
2022/01/22 02:35:56;;;;;;;16.30;5.05;;;;;;;-1.79;82.19;99241.81;6226706;23;20024;-78
2022/01/22 02:38:33;;;;;;;15.98;6.07;;;;;;;-1.59;81.72;99239.75;6226734;23;20392;-76
2022/01/22 02:41:00;;;;;;;14.73;4.80;;;;;;;-1.79;81.92;99244.44;6226743;23;20040;-78
2022/01/22 02:43:31;;;;;;;20.38;6.10;;;;;;;-1.63;81.44;99244.19;6226186;23;20021;-77
2022/01/22 02:46:01;;;;;;;18.80;5.78;;;;;;;-1.61;80.98;99237.09;6226668;23;20016;-77
2022/01/22 02:48:28;;;;;;;23.08;6.65;;;;;;;-1.72;81.50;99239.06;6226709;23;20047;-76
2022/01/22 02:50:56;;;;;;;17.00;5.65;;;;;;;-1.52;80.62;99230.78;6189500;23;20024;-77
2022/01/22 02:53:25;;;;;;;14.95;5.32;;;;;;;-1.60;80.50;99233.56;6190122;23;20016;-77
2022/01/22 02:55:53;;;;;;;16.42;5.38;;;;;;;-1.67;80.89;99231.91;6216715;23;20374;-77
2022/01/22 02:58:21;;;;;;;13.55;5.18;;;;;;;-1.67;80.89;99234.56;6226184;23;20020;-76
2022/01/22 03:00:48;;;;;;;16.23;5.32;;;;;;;-1.77;80.84;99232.06;6226568;23;20108;-77
2022/01/22 03:03:16;;;;;;;18.33;5.00;;;;;;;-1.60;80.50;99230.91;6226325;23;20027;-77
2022/01/22 03:05:43;;;;;;;18.23;5.72;;;;;;;-1.64;80.62;99227.41;6216648;23;20460;-77
2022/01/22 03:08:12;;;;;;;15.25;5.57;;;;;;;-1.61;80.44;99226.50;6226415;23;20470;-76
2022/01/22 03:10:43;;;;;;;14.70;5.30;;;;;;;-1.64;80.78;99238.00;6226271;23;20017;-76
2022/01/22 03:13:46;;;;;;;16.88;5.97;;;;;;;-1.75;81.26;99237.31;6225844;23;20081;-77
2022/01/22 03:16:13;;;;;;;25.42;7.25;;;;;;;-1.67;81.16;99246.00;6216501;23;20091;-76
2022/01/22 03:18:51;;;;;;;20.52;5.82;;;;;;;-1.78;81.50;99235.59;6226474;23;20071;-76
2022/01/22 03:21:41;;;;;;;16.30;5.05;;;;;;;-1.55;81.22;99236.13;6226249;23;20475;-77
2022/01/22 03:27:21;;;;;;;20.52;5.40;;;;;;;-1.60;81.13;99236.19;6226029;23;20017;-77
2022/01/22 03:29:50;;;;;;;19.05;5.75;;;;;;;-1.70;81.45;99237.25;6226189;23;20474;-77
2022/01/22 03:32:19;;;;;;;16.23;5.22;;;;;;;-1.67;81.40;99231.91;6226114;23;20020;-77
2022/01/22 03:34:56;;;;;;;16.10;5.18;;;;;;;-1.65;81.43;99230.09;6226124;23;20017;-77
2022/01/22 03:37:24;;;;;;;14.95;4.60;;;;;;;-1.55;81.71;99223.75;6226117;23;20024;-77
2022/01/22 03:39:51;;;;;;;18.77;5.15;;;;;;;-1.52;81.51;99229.00;6226056;23;20026;-77
2022/01/22 03:42:20;;;;;;;16.92;4.97;;;;;;;-1.45;81.02;99227.13;6225710;23;20021;-77
2022/01/22 03:44:48;;;;;;;10.93;4.35;;;;;;;-1.56;81.17;99224.66;6226050;23;20031;-77
2022/01/22 03:47:16;;;;;;;13.73;3.92;;;;;;;-1.71;81.98;99231.06;6226020;23;20017;-77
2022/01/22 03:49:43;;;;;;;20.05;5.72;;;;;;;-1.54;81.52;99235.22;6225950;23;20024;-76
2022/01/22 03:52:11;;;;;;;16.67;4.68;;;;;;;-1.56;81.61;99229.94;6225948;23;20078;-77
2022/01/22 03:54:38;;;;;;;11.38;4.43;;;;;;;-1.55;81.37;99223.75;6225888;23;20027;-78
2022/01/22 03:57:07;;;;;;;13.00;4.45;;;;;;;-1.58;81.91;99225.59;6225446;23;20028;-77
2022/01/22 03:59:36;;;;;;;16.63;4.43;;;;;;;-1.63;81.58;99233.59;6225976;23;20027;-77
2022/01/22 04:04:55;;;;;;;11.05;4.10;;;;;;;-1.56;81.50;99232.59;6123947;23;20021;-77
2022/01/22 04:10:09;;;;;;;11.43;4.28;;;;;;;-1.65;82.19;99224.81;6133375;23;20022;-77
2022/01/22 04:12:45;;;;;;;15.50;5.88;;;;;;;-1.62;81.63;99219.47;6133803;23;20025;-76
2022/01/22 04:15:17;;;;;;;18.77;5.43;;;;;;;-1.65;81.85;99227.47;6133765;23;20029;-76
2022/01/22 04:26:09;;;;;;;18.75;4.85;;;;;;;-1.57;82.07;99235.28;6166258;23;20025;-77
2022/01/22 04:28:36;;;;;;;13.15;4.10;;;;;;;-1.60;81.97;99244.16;6192912;23;20020;-76
2022/01/22 04:31:05;;;;;;;19.52;4.30;;;;;;;-1.56;81.82;99240.53;6192917;23;20025;-77
2022/01/22 04:33:33;;;;;;;14.93;4.20;;;;;;;-1.58;82.04;99242.34;6192869;23;20025;-77
2022/01/22 04:36:00;;;;;;;14.10;4.15;;;;;;;-1.55;81.88;99250.25;6192875;23;20341;-77
2022/01/22 04:38:28;;;;;;;15.13;4.57;;;;;;;-1.64;82.43;99240.66;6182876;23;20013;-76
2022/01/22 04:40:56;;;;;;;19.73;5.30;;;;;;;-1.59;82.42;99240.59;6200360;23;20321;-77
2022/01/22 04:43:23;;;;;;;16.02;4.50;;;;;;;-1.48;82.30;99251.03;6245601;23;20020;-77
2022/01/22 04:46:05;;;;;;;13.63;4.07;;;;;;;-1.53;82.14;99245.78;6255832;23;20016;-76
2022/01/22 04:48:49;;;;;;;13.68;4.03;;;;;;;-1.52;82.52;99258.13;6246256;22;20019;-76
2022/01/22 04:56:47;;;;;;;13.73;3.95;;;;;;;-1.62;82.97;99265.38;6256055;23;20473;-77
2022/01/22 04:59:14;;;;;;;14.50;4.22;;;;;;;-1.59;83.12;99259.13;6255933;23;20016;-77
2022/01/22 05:01:42;;;;;;;15.82;4.68;;;;;;;-1.57;83.75;99269.72;6255938;23;20012;-77
2022/01/22 05:04:11;;;;;;;14.40;5.00;;;;;;;-1.49;83.60;99254.56;6245147;23;20083;-77
2022/01/22 05:06:38;;;;;;;10.98;4.45;;;;;;;-1.57;83.91;99264.44;6255136;23;20046;-76
2022/01/22 05:09:06;;;;;;;13.90;5.00;;;;;;;-1.52;83.95;99258.13;6255572;22;20020;-77
2022/01/22 05:11:34;;;;;;;13.48;4.85;;;;;;;-1.66;85.62;99265.44;6245961;23;20016;-77
2022/01/22 05:14:01;;;;;;;22.42;8.20;;;;;;;-1.64;86.25;99263.63;6246303;23;20016;-77
2022/01/22 05:16:28;;;;;;;28.98;10.60;;;;;;;-1.68;85.96;99272.53;6258042;23;20363;-76
2022/01/22 05:19:00;;;;;;;33.65;12.00;;;;;;;-1.56;85.73;99272.34;6257946;23;20016;-76
2022/01/22 05:21:32;;;;;;;21.42;8.45;;;;;;;-1.58;85.42;99260.88;6257882;23;20343;-78
2022/01/22 05:24:04;;;;;;;22.90;6.78;;;;;;;-1.54;85.28;99262.59;6257524;23;20015;-76
2022/01/22 05:29:43;;;;;;;13.15;5.30;;;;;;;-1.56;84.96;99266.19;6214951;23;20075;-78
2022/01/22 05:32:33;;;;;;;14.48;5.50;;;;;;;-1.64;84.64;99261.00;6227433;23;20025;-76
2022/01/22 05:37:47;;;;;;;21.45;7.95;;;;;;;-1.60;84.86;99262.69;6226924;23;20024;-77
2022/01/22 05:40:15;;;;;;;16.58;6.28;;;;;;;-1.62;84.72;99261.84;6227272;23;20463;-77
2022/01/22 05:42:42;;;;;;;30.48;9.88;;;;;;;-1.71;85.30;99277.88;6227264;23;20016;-76
2022/01/22 05:45:10;;;;;;;16.13;6.53;;;;;;;-1.63;84.37;99279.53;6227192;23;20020;-76
2022/01/22 05:47:38;;;;;;;17.88;5.80;;;;;;;-1.61;84.91;99283.03;6227197;23;20024;-77
2022/01/22 05:50:12;;;;;;;16.90;5.82;;;;;;;-1.47;84.89;99281.91;6227118;23;20020;-77
2022/01/22 05:52:52;;;;;;;18.15;6.10;;;;;;;-1.53;84.61;99277.56;6226553;23;20016;-76
2022/01/22 06:00:53;;;;;;;20.92;5.95;;;;;;;-1.51;84.99;99296.97;6135052;23;20334;-77
2022/01/22 06:03:20;;;;;;;17.73;6.90;;;;;;;-1.46;84.87;99300.41;6134841;23;20018;-77
2022/01/22 06:05:48;;;;;;;21.58;6.50;;;;;;;-1.54;85.78;99304.09;6134518;23;20076;-77
2022/01/22 06:08:17;;;;;;;21.90;7.03;;;;;;;-1.47;85.21;99305.75;6134992;23;20033;-77
2022/01/22 06:10:53;;;;;;;17.42;6.28;;;;;;;-1.50;86.05;99311.09;6134935;23;20026;-76
2022/01/22 06:13:28;;;;;;;13.80;5.10;;;;;;;-1.40;85.47;99318.00;6134873;23;20021;-76
2022/01/22 06:15:56;;;;;;;12.52;4.82;;;;;;;-1.46;85.98;99324.25;6134924;23;20026;-77
2022/01/22 06:18:23;;;;;;;28.95;10.30;;;;;;;-1.46;86.90;99320.75;6100545;23;20025;-77
2022/01/22 06:20:51;;;;;;;28.13;9.63;;;;;;;-1.36;86.35;99317.06;6134448;23;20044;-77
2022/01/22 06:23:18;;;;;;;46.50;13.30;;;;;;;-1.28;85.95;99321.34;6134664;23;20085;-77
2022/01/22 06:25:47;;;;;;;37.50;12.00;;;;;;;-1.43;87.28;99333.06;6141080;23;20092;-76
2022/01/22 06:28:15;;;;;;;18.83;7.53;;;;;;;-1.22;86.02;99337.19;6164273;23;20025;-77
2022/01/22 06:30:44;;;;;;;19.67;6.05;;;;;;;-1.41;87.27;99345.41;6164116;23;20026;-77
2022/01/22 06:33:11;;;;;;;13.80;4.75;;;;;;;-1.49;89.22;99350.81;6164230;23;20021;-77
2022/01/22 06:35:39;;;;;;;13.98;4.60;;;;;;;-1.33;88.48;99363.84;6230796;23;20023;-76
2022/01/22 06:38:08;;;;;;;21.77;7.22;;;;;;;-1.38;88.56;99360.38;6257042;23;20039;-77
2022/01/22 06:43:22;;;;;;;16.92;6.65;;;;;;;-1.33;89.63;99370.00;6257105;23;20520;-76
2022/01/22 06:45:49;;;;;;;10.55;4.60;;;;;;;-1.40;90.65;99383.38;6257170;23;20016;-77
2022/01/22 06:48:17;;;;;;;16.15;6.22;;;;;;;-1.46;91.64;99377.25;6257066;23;20070;-77
2022/01/22 06:50:44;;;;;;;14.38;5.25;;;;;;;-1.53;91.57;99390.63;6256562;23;20020;-77
2022/01/22 06:53:12;;;;;;;10.68;4.35;;;;;;;-1.50;91.85;99391.44;6256898;23;20023;-77
2022/01/22 06:55:43;;;;;;;13.65;3.88;;;;;;;-1.43;91.63;99394.00;6246730;23;20386;-77
2022/01/22 06:58:11;;;;;;;9.75;4.20;;;;;;;-1.40;91.41;99408.09;6256904;23;20332;-77
2022/01/22 07:00:40;;;;;;;9.15;3.70;;;;;;;-1.53;93.27;99411.81;6256927;23;20078;-77
2022/01/22 07:03:07;;;;;;;17.98;4.97;;;;;;;-1.47;92.28;99403.78;6256584;23;20016;-78
2022/01/22 07:05:35;;;;;;;12.35;4.25;;;;;;;-1.33;92.43;99414.19;6256239;23;20508;-78
2022/01/22 07:08:02;;;;;;;12.32;3.75;;;;;;;-1.46;93.47;99418.78;6256287;23;20020;-77
2022/01/22 07:10:30;;;;;;;10.85;4.00;;;;;;;-1.48;93.79;99421.44;6252590;23;20027;-77
2022/01/22 07:12:58;;;;;;;11.77;3.92;;;;;;;-1.43;94.31;99429.34;6251958;23;20031;-77
2022/01/22 07:15:26;;;;;;;10.18;3.63;;;;;;;-1.37;94.16;99426.59;6251806;23;20352;-76
2022/01/22 07:17:55;;;;;;;12.32;3.80;;;;;;;-1.50;95.06;99433.84;6252249;23;20027;-76
2022/01/22 07:20:28;;;;;;;13.60;4.90;;;;;;;-1.43;94.62;99439.03;6251729;23;20315;-76
2022/01/22 07:23:01;;;;;;;9.80;3.85;;;;;;;-1.51;95.12;99444.47;6251102;23;20020;-77
2022/01/22 07:25:30;;;;;;;14.05;4.30;;;;;;;-1.33;94.38;99441.56;6241545;23;20026;-77
2022/01/22 07:27:57;;;;;;;12.48;3.65;;;;;;;-1.33;95.15;99448.63;6221039;23;20337;-77
2022/01/22 07:30:27;;;;;;;11.13;3.92;;;;;;;-1.39;95.86;99446.06;6221501;23;20472;-77
2022/01/22 07:32:56;;;;;;;11.25;4.07;;;;;;;-1.38;96.02;99451.34;6221189;23;20076;-77
2022/01/22 07:35:24;;;;;;;14.38;4.18;;;;;;;-1.31;95.06;99446.84;6221552;23;20051;-76
2022/01/22 07:37:51;;;;;;;13.13;3.75;;;;;;;-1.29;94.60;99455.66;6221689;23;20016;-77
2022/01/22 07:40:19;;;;;;;12.07;4.00;;;;;;;-1.41;95.82;99464.63;6221219;23;20024;-76
2022/01/22 07:42:46;;;;;;;11.05;3.88;;;;;;;-1.35;95.54;99458.38;6221405;23;20348;-77
2022/01/22 07:45:14;;;;;;;10.32;3.85;;;;;;;-1.33;95.59;99464.53;6221764;23;20333;-76
2022/01/22 07:47:41;;;;;;;9.65;3.58;;;;;;;-1.39;96.26;99472.56;6221220;23;20021;-77
2022/01/22 07:50:11;;;;;;;8.57;3.80;;;;;;;-1.49;97.29;99477.97;6211237;23;20019;-76
2022/01/22 07:52:38;;;;;;;8.82;3.53;;;;;;;-1.40;96.33;99484.06;6221306;23;20016;-76
2022/01/22 07:55:08;;;;;;;7.97;3.20;;;;;;;-1.51;96.52;99484.22;6221362;23;20047;-76
2022/01/22 07:57:35;;;;;;;6.80;3.20;;;;;;;-1.42;95.52;99489.38;6221551;23;20027;-76
2022/01/22 08:00:03;;;;;;;7.55;3.38;;;;;;;-1.42;95.71;99497.31;6221421;23;20059;-76
2022/01/22 08:02:31;;;;;;;7.75;3.42;;;;;;;-1.48;95.43;99498.28;6220518;23;20228;-75
2022/01/22 08:04:58;;;;;;;7.38;3.10;;;;;;;-1.33;94.60;99504.28;6221392;23;20020;-75
2022/01/22 08:07:27;;;;;;;8.27;3.22;;;;;;;-1.49;95.04;99512.41;6221644;23;20467;-76
2022/01/22 08:09:54;;;;;;;8.05;3.05;;;;;;;-1.34;94.56;99510.50;6221540;23;20025;-76
2022/01/22 08:12:22;;;;;;;7.22;3.15;;;;;;;-1.42;94.05;99522.97;6221214;23;20757;-76
2022/01/22 08:14:49;;;;;;;7.07;3.35;;;;;;;-1.46;92.67;99527.41;6221271;23;20118;-76
2022/01/22 08:17:17;;;;;;;6.88;2.95;;;;;;;-1.50;94.12;99531.84;6220893;23;20024;-77
2022/01/22 08:19:45;;;;;;;8.20;3.25;;;;;;;-1.46;94.07;99538.00;6221104;23;20016;-76
2022/01/22 08:22:12;;;;;;;7.00;3.03;;;;;;;-1.44;93.03;99538.88;6221577;23;20060;-75
2022/01/22 08:24:41;;;;;;;10.13;4.18;;;;;;;-1.48;93.21;99550.41;6221260;23;20351;-74
2022/01/22 08:27:15;;;;;;;7.63;3.50;;;;;;;-1.37;92.41;99537.88;6220808;23;20031;-75
2022/01/22 08:29:43;;;;;;;6.47;3.05;;;;;;;-1.38;91.27;99541.44;6220764;23;20074;-75
2022/01/22 08:32:29;;;;;;;7.28;3.00;;;;;;;-1.37;91.62;99544.97;6221228;23;20024;-76
2022/01/22 08:37:42;;;;;;;9.13;3.22;;;;;;;-1.29;90.83;99556.34;6221272;23;20031;-76
2022/01/22 08:40:12;;;;;;;9.60;3.60;;;;;;;-1.18;92.10;99570.34;6224631;23;20059;-77
2022/01/22 08:42:40;;;;;;;8.48;3.30;;;;;;;-1.02;90.26;99580.75;6225978;23;20092;-77
2022/01/22 08:45:08;;;;;;;8.57;3.72;;;;;;;-1.15;90.94;99585.34;6225818;23;20086;-77
2022/01/22 08:47:36;;;;;;;9.10;3.25;;;;;;;-1.14;88.73;99600.34;6224544;23;20021;-77
2022/01/22 08:50:04;;;;;;;9.38;3.50;;;;;;;-1.10;90.52;99599.41;6224609;23;20020;-77
2022/01/22 08:52:35;;;;;;;12.15;4.05;;;;;;;-1.10;90.20;99614.44;6224653;23;20020;-77
2022/01/22 08:55:03;;;;;;;7.78;3.40;;;;;;;-1.12;90.73;99618.88;6225494;23;20023;-77
2022/01/22 08:57:32;;;;;;;9.23;3.50;;;;;;;-1.10;90.83;99623.28;6225250;23;20021;-77
2022/01/22 09:00:00;;;;;;;12.82;4.50;;;;;;;-1.15;90.13;99627.75;6224619;23;20083;-77
2022/01/22 09:02:28;;;;;;;8.25;3.70;;;;;;;-1.13;90.35;99636.56;6225196;23;20025;-78
2022/01/22 09:04:56;;;;;;;8.07;3.42;;;;;;;-1.12;90.67;99632.13;6224611;23;20023;-77
2022/01/22 09:07:23;;;;;;;7.88;3.42;;;;;;;-1.10;89.61;99640.94;6225514;23;20016;-76
2022/01/22 09:09:51;;;;;;;10.73;4.50;;;;;;;-1.05;89.80;99649.72;6224608;23;20074;-77
2022/01/22 09:12:19;;;;;;;8.80;3.30;;;;;;;-1.05;89.66;99655.91;6224678;23;20017;-76
2022/01/22 09:14:48;;;;;;;10.60;3.75;;;;;;;-1.02;89.82;99649.66;6223765;23;20042;-77
2022/01/22 09:17:16;;;;;;;9.52;3.85;;;;;;;-1.00;89.62;99661.16;6224526;23;20455;-77
2022/01/22 09:19:46;;;;;;;8.55;3.63;;;;;;;-1.01;89.20;99659.41;6224772;23;20043;-77
2022/01/22 09:22:15;;;;;;;9.77;4.50;;;;;;;-0.95;88.98;99656.69;6224514;23;20016;-76
2022/01/22 09:24:42;;;;;;;10.10;4.07;;;;;;;-1.02;89.13;99658.53;6224487;23;20453;-83
2022/01/22 09:27:12;;;;;;;10.18;4.20;;;;;;;-0.90;87.76;99662.81;6224254;23;20044;-80
2022/01/22 09:29:40;;;;;;;11.10;3.63;;;;;;;-0.76;88.45;99664.41;6224256;23;20062;-79
2022/01/22 09:32:09;;;;;;;10.50;3.50;;;;;;;-0.55;86.80;99665.03;6187987;23;20063;-80
2022/01/22 09:34:37;;;;;;;10.75;3.90;;;;;;;-0.56;87.29;99664.13;6224644;23;20436;-79
2022/01/22 09:37:04;;;;;;;8.88;3.30;;;;;;;-0.49;85.21;99668.44;6225052;23;20155;-79
2022/01/22 09:39:32;;;;;;;9.20;3.30;;;;;;;-0.51;85.05;99667.59;6225205;23;20380;-79
2022/01/22 09:42:01;;;;;;;8.65;3.67;;;;;;;-0.47;85.07;99677.28;6225244;23;20016;-82
2022/01/22 09:44:28;;;;;;;9.05;3.45;;;;;;;-0.48;83.61;99687.94;6224940;23;20021;-79
2022/01/22 09:46:57;;;;;;;8.00;3.35;;;;;;;-0.46;84.31;99688.78;6225251;23;20028;-79
2022/01/22 09:49:26;;;;;;;8.80;3.30;;;;;;;-0.42;81.51;99690.50;6225287;23;20079;-79
2022/01/22 09:51:53;;;;;;;8.25;3.17;;;;;;;-0.27;80.57;99692.06;6225152;23;20021;-80
2022/01/22 09:54:21;;;;;;;6.93;2.95;;;;;;;-0.21;81.13;99686.66;6225230;23;20095;-79
2022/01/22 09:56:48;;;;;;;8.00;3.25;;;;;;;-0.27;82.31;99694.72;6188557;23;20013;-80
2022/01/22 09:59:16;;;;;;;9.88;3.75;;;;;;;-0.36;81.98;99692.19;6225217;23;20088;-78
2022/01/22 10:01:44;;;;;;;7.90;3.30;;;;;;;-0.52;81.63;99696.81;6226307;23;20024;-80
2022/01/22 10:04:11;;;;;;;6.43;3.10;;;;;;;-0.62;82.32;99711.97;6226945;23;20012;-80
2022/01/22 10:06:50;;;;;;;8.40;2.85;;;;;;;-0.57;83.12;99709.28;6227064;23;20023;-80
2022/01/22 10:09:27;;;;;;;8.23;3.10;;;;;;;-0.54;82.33;99711.88;6227166;23;20399;-80
2022/01/22 10:12:12;;;;;;;6.85;3.08;;;;;;;-0.55;82.72;99723.41;6227151;23;20039;-80
2022/01/22 10:15:05;;;;;;;10.05;3.20;;;;;;;-0.53;81.58;99724.25;6226952;23;20024;-80
2022/01/22 10:17:46;;;;;;;6.85;3.10;;;;;;;-0.57;81.01;99726.06;6227058;23;20028;-79
2022/01/22 10:20:38;;;;;;;8.60;3.20;;;;;;;-0.35;80.60;99716.03;6227378;23;20024;-79
2022/01/22 10:23:11;;;;;;;8.23;3.30;;;;;;;-0.32;80.70;99723.97;6226961;23;20016;-81
2022/01/22 10:25:43;;;;;;;8.60;3.53;;;;;;;-0.48;80.51;99733.03;6226792;23;20020;-81
2022/01/22 10:28:15;;;;;;;7.95;3.22;;;;;;;-0.27;79.30;99730.97;6226508;23;20016;-80
2022/01/22 10:30:45;;;;;;;6.13;2.90;;;;;;;-0.17;79.61;99737.94;6227349;23;20032;-84
2022/01/22 10:36:10;;;;;;;17.95;6.35;;;;;;;-0.17;79.32;99740.59;6213369;23;20020;-84
2022/01/22 10:38:44;;;;;;;7.32;2.95;;;;;;;-0.26;77.47;99735.38;6226788;23;20083;-80
2022/01/22 10:41:13;;;;;;;7.40;3.42;;;;;;;-0.14;77.28;99745.88;6226370;23;20021;-81
2022/01/22 10:43:51;;;;;;;8.75;3.60;;;;;;;-0.12;77.31;99749.38;6226666;23;20024;-80
2022/01/22 10:46:21;;;;;;;7.25;3.25;;;;;;;-0.11;77.80;99753.78;6226699;23;20020;-85
2022/01/22 10:48:57;;;;;;;10.30;3.13;;;;;;;0.03;77.62;99763.31;6226775;23;20016;-79
2022/01/22 10:51:26;;;;;;;8.43;3.47;;;;;;;0.03;77.18;99760.66;6226630;23;20017;-75
2022/01/22 10:53:58;;;;;;;9.27;3.70;;;;;;;-0.08;77.69;99779.41;6225976;23;20079;-74
2022/01/22 10:56:27;;;;;;;8.50;3.40;;;;;;;-0.03;78.47;99769.59;6226235;23;20126;-82
2022/01/22 10:59:00;;;;;;;12.48;3.63;;;;;;;-0.11;78.52;99782.09;6226981;23;20021;-80
2022/01/22 11:01:30;;;;;;;8.30;3.45;;;;;;;-0.12;79.28;99786.53;6226525;23;20020;-80
2022/01/22 11:04:07;;;;;;;7.03;3.30;;;;;;;-0.26;79.03;99785.84;6226116;23;20035;-81
2022/01/22 11:06:35;;;;;;;10.95;4.80;;;;;;;-0.21;77.96;99786.66;6226908;23;20026;-82
2022/01/22 11:09:05;;;;;;;9.95;4.80;;;;;;;-0.07;77.76;99787.38;6226510;23;20017;-79
2022/01/22 11:11:36;;;;;;;8.77;3.80;;;;;;;-0.20;78.55;99794.59;6225896;23;20012;-81
2022/01/22 11:14:06;;;;;;;9.73;3.78;;;;;;;-0.33;77.71;99790.38;6226023;23;20023;-83
2022/01/22 11:16:33;;;;;;;7.63;3.50;;;;;;;-0.32;77.20;99795.63;6225979;23;20132;-80
2022/01/22 11:19:04;;;;;;;9.65;4.22;;;;;;;-0.25;77.45;99785.81;6226051;23;20020;-80
2022/01/22 11:21:32;;;;;;;9.02;3.85;;;;;;;-0.38;76.95;99784.22;6226353;23;20027;-80
2022/01/22 11:24:00;;;;;;;8.27;3.42;;;;;;;-0.26;76.33;99796.44;6226431;23;20016;-80
2022/01/22 11:26:30;;;;;;;14.45;5.80;;;;;;;-0.18;77.20;99792.81;6225450;23;20024;-80
2022/01/22 11:28:58;;;;;;;7.45;3.28;;;;;;;-0.19;76.89;99811.44;6225569;23;20024;-80
2022/01/22 11:31:26;;;;;;;8.10;3.30;;;;;;;-0.32;75.65;99806.25;6221886;23;20020;-79
2022/01/22 11:33:54;;;;;;;8.95;3.50;;;;;;;-0.45;75.35;99823.22;6221507;23;20546;-81
2022/01/22 11:36:26;;;;;;;9.32;3.90;;;;;;;-0.39;76.15;99804.56;6221114;23;20020;-81
2022/01/22 11:38:55;;;;;;;8.25;3.55;;;;;;;-0.38;76.35;99814.28;6221789;23;20094;-80
2022/01/22 11:41:24;;;;;;;9.38;4.18;;;;;;;-0.53;77.42;99811.84;6221505;23;20192;-83
2022/01/22 11:44:06;;;;;;;8.95;3.80;;;;;;;-0.64;76.88;99820.75;6221511;23;20111;-83
2022/01/22 11:46:36;;;;;;;8.88;3.60;;;;;;;-0.50;77.93;99828.56;6221551;23;20025;-82
2022/01/22 11:49:16;;;;;;;8.77;3.63;;;;;;;-0.49;77.24;99829.47;6221133;23;20020;-80
2022/01/22 11:51:45;;;;;;;7.93;3.33;;;;;;;-0.25;76.25;99825.66;6221437;23;20024;-80
2022/01/22 11:54:14;;;;;;;9.30;3.60;;;;;;;-0.02;76.04;99835.97;6220867;23;20020;-80
2022/01/22 11:56:47;;;;;;;9.32;3.70;;;;;;;0.08;76.40;99839.41;6221535;23;20020;-81
2022/01/22 11:59:25;;;;;;;8.68;3.90;;;;;;;-0.09;76.13;99839.63;6220767;23;20057;-80
2022/01/22 12:01:56;;;;;;;8.25;3.50;;;;;;;-0.25;76.76;99843.34;6221420;23;20044;-82
2022/01/22 12:04:25;;;;;;;9.00;3.88;;;;;;;-0.16;76.11;99848.56;6221419;23;20467;-81
2022/01/22 12:07:12;;;;;;;8.30;3.67;;;;;;;-0.37;76.51;99853.22;6221562;23;20024;-83
2022/01/22 12:09:50;;;;;;;9.75;3.85;;;;;;;-0.42;77.03;99863.00;6221171;23;20024;-82
2022/01/22 12:15:13;;;;;;;8.07;3.65;;;;;;;-0.46;76.98;99856.84;6221382;23;20250;-80
2022/01/22 12:18:10;;;;;;;9.68;3.92;;;;;;;-0.57;76.92;99871.13;6222061;23;20023;-80
2022/01/22 12:23:48;;;;;;;11.40;4.55;;;;;;;-0.06;75.57;99873.19;6220289;23;20040;-81
2022/01/22 12:26:17;;;;;;;22.38;8.15;;;;;;;0.25;74.48;99880.78;6221535;23;20073;-80
2022/01/22 12:28:45;;;;;;;11.35;4.40;;;;;;;0.09;74.35;99882.75;6221349;23;20447;-79
2022/01/22 12:31:16;;;;;;;9.75;4.20;;;;;;;0.24;74.88;99890.56;6221377;23;20025;-80
2022/01/22 12:33:46;;;;;;;10.07;4.18;;;;;;;0.36;74.39;99893.94;6221404;23;20027;-79
2022/01/22 12:36:18;;;;;;;8.20;3.72;;;;;;;0.40;72.52;99891.19;6220862;23;20016;-79
2022/01/22 12:38:58;;;;;;;8.50;3.42;;;;;;;0.48;73.06;99899.06;6221067;23;20400;-80
2022/01/22 12:41:31;;;;;;;13.18;5.10;;;;;;;0.27;74.06;99903.78;6221215;23;20024;-80
2022/01/22 12:44:06;;;;;;;11.18;4.50;;;;;;;0.22;74.47;99918.91;6221246;23;20023;-80
2022/01/22 12:46:36;;;;;;;14.68;5.45;;;;;;;-0.05;75.04;99914.78;6221345;23;20193;-81
2022/01/22 12:49:05;;;;;;;15.15;5.30;;;;;;;-0.14;74.95;99921.13;6220844;23;20491;-80
2022/01/22 12:51:34;;;;;;;8.95;3.90;;;;;;;-0.19;74.90;99921.16;6221585;23;20099;-82
2022/01/22 12:54:03;;;;;;;9.10;3.95;;;;;;;-0.25;75.26;99933.59;6210599;23;20032;-82
2022/01/22 12:56:49;;;;;;;10.40;4.90;;;;;;;-0.29;75.71;99927.47;6221327;23;20024;-80
2022/01/22 12:59:16;;;;;;;14.80;6.65;;;;;;;-0.32;75.92;99938.97;6221198;23;20072;-79
2022/01/22 13:01:47;;;;;;;10.63;4.25;;;;;;;-0.38;76.39;99935.53;6221043;23;20024;-80